sensor_id;sensor_type;location;lat;lon;timestamp;pressure;altitude;pressure_sealevel;temperature;humidity
5053;BME280;2545;50.892;5.740;2023-02-28T00:01:23;56159.16;;;-142.21;80.14
5053;BME280;2545;50.892;5.740;2023-02-28T00:03:49;56214.06;;;-142.21;80.79
5053;BME280;2545;50.892;5.740;2023-02-28T00:06:14;56214.06;;;-142.21;80.80
5053;BME280;2545;50.892;5.740;2023-02-28T00:08:39;56176.78;;;-142.21;81.33
5053;BME280;2545;50.892;5.740;2023-02-28T00:11:10;56170.91;;;-142.21;81.91
5053;BME280;2545;50.892;5.740;2023-02-28T00:13:38;56212.09;;;-142.21;82.57
5053;BME280;2545;50.892;5.740;2023-02-28T00:16:07;56174.84;;;-142.21;83.06
5053;BME280;2545;50.892;5.740;2023-02-28T00:18:34;56180.72;;;-142.21;83.37
5053;BME280;2545;50.892;5.740;2023-02-28T00:20:59;56170.91;;;-142.21;83.42
5053;BME280;2545;50.892;5.740;2023-02-28T00:23:25;56167.00;;;-142.21;83.20
5053;BME280;2545;50.892;5.740;2023-02-28T00:25:51;56196.41;;;-142.21;83.34
5053;BME280;2545;50.892;5.740;2023-02-28T00:28:17;56194.44;;;-142.21;83.71
5053;BME280;2545;50.892;5.740;2023-02-28T00:30:43;56219.94;;;-142.21;84.03
5053;BME280;2545;50.892;5.740;2023-02-28T00:33:09;56188.56;;;-142.21;83.77
5053;BME280;2545;50.892;5.740;2023-02-28T00:35:34;56167.00;;;-142.21;83.78
5053;BME280;2545;50.892;5.740;2023-02-28T00:38:00;56194.44;;;-142.21;84.39
5053;BME280;2545;50.892;5.740;2023-02-28T00:40:25;56182.69;;;-142.21;84.41
5053;BME280;2545;50.892;5.740;2023-02-28T00:42:50;56174.84;;;-142.21;84.73
5053;BME280;2545;50.892;5.740;2023-02-28T00:45:16;56196.41;;;-142.21;84.92
5053;BME280;2545;50.892;5.740;2023-02-28T00:47:41;56192.50;;;-142.21;85.39
5053;BME280;2545;50.892;5.740;2023-02-28T00:50:07;56174.84;;;-142.21;85.82
5053;BME280;2545;50.892;5.740;2023-02-28T00:52:32;56200.34;;;-142.21;85.72
5053;BME280;2545;50.892;5.740;2023-02-28T00:54:58;56202.28;;;-142.21;86.04
5053;BME280;2545;50.892;5.740;2023-02-28T00:57:23;56196.41;;;-142.21;86.48
5053;BME280;2545;50.892;5.740;2023-02-28T00:59:48;56223.84;;;-142.21;86.52
5053;BME280;2545;50.892;5.740;2023-02-28T01:02:14;56206.22;;;-142.21;86.84
5053;BME280;2545;50.892;5.740;2023-02-28T01:04:39;56212.09;;;-142.21;86.57
5053;BME280;2545;50.892;5.740;2023-02-28T01:07:04;56206.22;;;-142.21;86.81
5053;BME280;2545;50.892;5.740;2023-02-28T01:09:30;56198.38;;;-142.21;86.86
5053;BME280;2545;50.892;5.740;2023-02-28T01:11:56;56196.41;;;-142.21;86.73
5053;BME280;2545;50.892;5.740;2023-02-28T01:14:21;56172.88;;;-142.21;86.46
5053;BME280;2545;50.892;5.740;2023-02-28T01:16:46;56206.22;;;-142.21;86.33
5053;BME280;2545;50.892;5.740;2023-02-28T01:19:12;56180.72;;;-142.21;86.56
5053;BME280;2545;50.892;5.740;2023-02-28T01:21:37;56149.34;;;-142.21;86.54
5053;BME280;2545;50.892;5.740;2023-02-28T01:24:04;56178.75;;;-142.21;86.35
5053;BME280;2545;50.892;5.740;2023-02-28T01:26:30;56190.53;;;-142.21;86.46
5053;BME280;2545;50.892;5.740;2023-02-28T01:28:56;56188.56;;;-142.21;86.47
5053;BME280;2545;50.892;5.740;2023-02-28T01:31:21;56163.06;;;-142.21;86.58
5053;BME280;2545;50.892;5.740;2023-02-28T01:33:47;56204.25;;;-142.21;87.12
5053;BME280;2545;50.892;5.740;2023-02-28T01:36:23;56176.78;;;-142.21;86.88
5053;BME280;2545;50.892;5.740;2023-02-28T01:38:49;56212.09;;;-142.21;87.18
5053;BME280;2545;50.892;5.740;2023-02-28T01:41:21;56180.72;;;-142.21;86.95
5053;BME280;2545;50.892;5.740;2023-02-28T01:46:13;56184.66;;;-142.21;87.12
5053;BME280;2545;50.892;5.740;2023-02-28T01:48:51;56229.75;;;-142.21;87.12
5053;BME280;2545;50.892;5.740;2023-02-28T01:51:22;56194.44;;;-142.21;87.25
5053;BME280;2545;50.892;5.740;2023-02-28T01:53:51;56176.78;;;-142.21;87.04
5053;BME280;2545;50.892;5.740;2023-02-28T01:56:20;56180.72;;;-142.21;87.11
5053;BME280;2545;50.892;5.740;2023-02-28T01:58:49;56204.25;;;-142.21;87.57
5053;BME280;2545;50.892;5.740;2023-02-28T02:01:15;56204.25;;;-142.21;87.71
5053;BME280;2545;50.892;5.740;2023-02-28T02:03:51;56176.78;;;-142.21;87.66
5053;BME280;2545;50.892;5.740;2023-02-28T02:06:34;56180.72;;;-142.21;87.94
5053;BME280;2545;50.892;5.740;2023-02-28T02:09:00;56161.13;;;-142.21;88.33
5053;BME280;2545;50.892;5.740;2023-02-28T02:11:26;56174.84;;;-142.21;88.42
5053;BME280;2545;50.892;5.740;2023-02-28T02:14:27;56170.91;;;-142.21;88.34
5053;BME280;2545;50.892;5.740;2023-02-28T02:17:10;56176.78;;;-142.21;88.52
5053;BME280;2545;50.892;5.740;2023-02-28T02:25:43;56168.97;;;-142.21;89.30
5053;BME280;2545;50.892;5.740;2023-02-28T02:29:03;56149.34;;;-142.21;89.53
5053;BME280;2545;50.892;5.740;2023-02-28T02:31:37;56196.41;;;-142.21;89.87
5053;BME280;2545;50.892;5.740;2023-02-28T02:42:21;56168.97;;;-142.21;91.13
5053;BME280;2545;50.892;5.740;2023-02-28T02:44:57;56186.59;;;-142.21;91.42
5053;BME280;2545;50.892;5.740;2023-02-28T02:47:26;56192.50;;;-142.21;91.54
5053;BME280;2545;50.892;5.740;2023-02-28T02:49:55;56200.34;;;-142.21;91.70
5053;BME280;2545;50.892;5.740;2023-02-28T02:52:28;56178.75;;;-142.21;91.76
5053;BME280;2545;50.892;5.740;2023-02-28T02:54:56;56190.53;;;-142.21;91.93
5053;BME280;2545;50.892;5.740;2023-02-28T02:57:37;56141.50;;;-142.21;92.42
5053;BME280;2545;50.892;5.740;2023-02-28T03:00:05;56216.00;;;-142.21;92.74
5053;BME280;2545;50.892;5.740;2023-02-28T03:02:34;56178.75;;;-142.21;93.14
5053;BME280;2545;50.892;5.740;2023-02-28T03:05:05;56210.13;;;-142.21;93.55
5053;BME280;2545;50.892;5.740;2023-02-28T03:07:33;56184.66;;;-142.21;93.78
5053;BME280;2545;50.892;5.740;2023-02-28T03:09:58;56161.13;;;-142.21;93.96
5053;BME280;2545;50.892;5.740;2023-02-28T03:12:33;56176.78;;;-142.21;94.56
5053;BME280;2545;50.892;5.740;2023-02-28T03:15:13;56141.50;;;-142.21;95.20
5053;BME280;2545;50.892;5.740;2023-02-28T03:18:03;56170.91;;;-142.21;95.56
5053;BME280;2545;50.892;5.740;2023-02-28T03:20:56;56184.66;;;-142.21;95.92
5053;BME280;2545;50.892;5.740;2023-02-28T03:23:53;56212.09;;;-142.21;96.54
5053;BME280;2545;50.892;5.740;2023-02-28T03:26:23;56151.31;;;-142.21;97.03
5053;BME280;2545;50.892;5.740;2023-02-28T03:29:17;56206.22;;;-142.21;98.14
5053;BME280;2545;50.892;5.740;2023-02-28T03:31:54;56198.38;;;-142.21;98.64
5053;BME280;2545;50.892;5.740;2023-02-28T03:34:37;56165.03;;;-142.21;98.18
5053;BME280;2545;50.892;5.740;2023-02-28T03:37:08;56198.38;;;-142.21;98.40
5053;BME280;2545;50.892;5.740;2023-02-28T03:39:42;56163.06;;;-142.21;97.23
5053;BME280;2545;50.892;5.740;2023-02-28T03:42:12;56200.34;;;-142.21;96.80
5053;BME280;2545;50.892;5.740;2023-02-28T03:44:52;56194.44;;;-142.21;96.37
5053;BME280;2545;50.892;5.740;2023-02-28T03:47:37;56188.56;;;-142.21;96.13
5053;BME280;2545;50.892;5.740;2023-02-28T03:52:34;56167.00;;;-142.21;95.31
5053;BME280;2545;50.892;5.740;2023-02-28T03:55:05;56192.50;;;-142.21;94.86
5053;BME280;2545;50.892;5.740;2023-02-28T04:00:04;56202.28;;;-142.21;93.05
5053;BME280;2545;50.892;5.740;2023-02-28T04:02:32;56172.88;;;-142.21;92.45
5053;BME280;2545;50.892;5.740;2023-02-28T04:04:58;56225.81;;;-142.21;91.83
5053;BME280;2545;50.892;5.740;2023-02-28T04:07:24;56221.91;;;-142.21;91.19
5053;BME280;2545;50.892;5.740;2023-02-28T04:09:50;56206.22;;;-142.21;91.02
5053;BME280;2545;50.892;5.740;2023-02-28T04:12:15;56151.31;;;-142.21;91.24
5053;BME280;2545;50.892;5.740;2023-02-28T04:14:40;56188.56;;;-142.21;91.33
5053;BME280;2545;50.892;5.740;2023-02-28T04:17:05;56165.03;;;-142.21;91.80
5053;BME280;2545;50.892;5.740;2023-02-28T04:19:31;56202.28;;;-142.21;91.95
5053;BME280;2545;50.892;5.740;2023-02-28T04:21:56;56198.38;;;-142.21;92.45
5053;BME280;2545;50.892;5.740;2023-02-28T04:24:23;56233.66;;;-142.21;92.52
5053;BME280;2545;50.892;5.740;2023-02-28T04:26:52;56184.66;;;-142.21;91.99
5053;BME280;2545;50.892;5.740;2023-02-28T04:29:29;56202.28;;;-142.21;92.04
5053;BME280;2545;50.892;5.740;2023-02-28T04:33:15;56190.53;;;-142.21;92.38
5053;BME280;2545;50.892;5.740;2023-02-28T04:35:40;56151.31;;;-142.21;92.83
5053;BME280;2545;50.892;5.740;2023-02-28T04:38:06;56147.38;;;-142.21;93.55
5053;BME280;2545;50.892;5.740;2023-02-28T04:40:31;56217.97;;;-142.21;94.49
5053;BME280;2545;50.892;5.740;2023-02-28T04:42:56;56190.53;;;-142.21;95.74
5053;BME280;2545;50.892;5.740;2023-02-28T04:45:22;56172.88;;;-142.21;97.07
5053;BME280;2545;50.892;5.740;2023-02-28T04:47:47;56163.06;;;-142.21;98.49
5053;BME280;2545;50.892;5.740;2023-02-28T04:50:12;56168.97;;;-142.21;99.58
5053;BME280;2545;50.892;5.740;2023-02-28T04:52:38;56159.16;;;-142.21;100.00
5053;BME280;2545;50.892;5.740;2023-02-28T04:55:03;56163.06;;;-142.21;100.00
5053;BME280;2545;50.892;5.740;2023-02-28T04:57:29;56192.50;;;-142.21;100.00
5053;BME280;2545;50.892;5.740;2023-02-28T04:59:55;56184.66;;;-142.21;100.00
5053;BME280;2545;50.892;5.740;2023-02-28T05:02:20;56214.06;;;-142.21;100.00
5053;BME280;2545;50.892;5.740;2023-02-28T05:04:46;56225.81;;;-142.21;100.00
5053;BME280;2545;50.892;5.740;2023-02-28T05:07:11;56196.41;;;-142.21;100.00
5053;BME280;2545;50.892;5.740;2023-02-28T05:09:37;56192.50;;;-142.21;100.00
5053;BME280;2545;50.892;5.740;2023-02-28T05:12:02;56167.00;;;-142.21;100.00
5053;BME280;2545;50.892;5.740;2023-02-28T05:14:28;56172.88;;;-142.21;100.00
5053;BME280;2545;50.892;5.740;2023-02-28T05:16:53;56176.78;;;-142.21;100.00
5053;BME280;2545;50.892;5.740;2023-02-28T05:19:19;56208.16;;;-142.21;100.00
5053;BME280;2545;50.892;5.740;2023-02-28T05:21:52;56192.50;;;-142.21;100.00
5053;BME280;2545;50.892;5.740;2023-02-28T05:24:18;56188.56;;;-142.21;100.00
5053;BME280;2545;50.892;5.740;2023-02-28T05:26:48;56192.50;;;-142.21;100.00
5053;BME280;2545;50.892;5.740;2023-02-28T05:29:13;56188.56;;;-142.21;100.00
5053;BME280;2545;50.892;5.740;2023-02-28T05:31:39;56255.22;;;-142.21;100.00
5053;BME280;2545;50.892;5.740;2023-02-28T05:34:04;56206.22;;;-142.21;100.00
5053;BME280;2545;50.892;5.740;2023-02-28T05:36:30;56145.44;;;-142.21;100.00
5053;BME280;2545;50.892;5.740;2023-02-28T05:38:55;56163.06;;;-142.21;100.00
5053;BME280;2545;50.892;5.740;2023-02-28T05:41:21;56133.66;;;-142.21;100.00
5053;BME280;2545;50.892;5.740;2023-02-28T05:43:47;56182.69;;;-142.21;100.00
5053;BME280;2545;50.892;5.740;2023-02-28T05:46:13;56168.97;;;-142.21;100.00
5053;BME280;2545;50.892;5.740;2023-02-28T05:48:40;56176.78;;;-142.21;100.00
5053;BME280;2545;50.892;5.740;2023-02-28T05:51:07;56192.50;;;-142.21;100.00
5053;BME280;2545;50.892;5.740;2023-02-28T05:53:32;56163.06;;;-142.21;100.00
5053;BME280;2545;50.892;5.740;2023-02-28T05:55:58;56206.22;;;-142.21;100.00
5053;BME280;2545;50.892;5.740;2023-02-28T05:58:24;56163.06;;;-142.21;100.00
5053;BME280;2545;50.892;5.740;2023-02-28T06:00:50;56214.06;;;-142.21;100.00
5053;BME280;2545;50.892;5.740;2023-02-28T06:03:16;56178.75;;;-142.21;100.00
5053;BME280;2545;50.892;5.740;2023-02-28T06:05:41;56186.59;;;-142.21;100.00
5053;BME280;2545;50.892;5.740;2023-02-28T06:08:07;56151.31;;;-142.21;100.00
5053;BME280;2545;50.892;5.740;2023-02-28T06:10:34;56206.22;;;-142.21;100.00
5053;BME280;2545;50.892;5.740;2023-02-28T06:13:00;56198.38;;;-142.21;100.00
5053;BME280;2545;50.892;5.740;2023-02-28T06:15:28;56170.91;;;-142.21;100.00
5053;BME280;2545;50.892;5.740;2023-02-28T06:17:53;56190.53;;;-142.21;100.00
5053;BME280;2545;50.892;5.740;2023-02-28T06:20:18;56202.28;;;-142.21;100.00
5053;BME280;2545;50.892;5.740;2023-02-28T06:22:44;56176.78;;;-142.21;100.00
5053;BME280;2545;50.892;5.740;2023-02-28T06:25:10;56163.06;;;-142.21;100.00
5053;BME280;2545;50.892;5.740;2023-02-28T06:27:36;56182.69;;;-142.21;100.00
5053;BME280;2545;50.892;5.740;2023-02-28T06:30:02;56182.69;;;-142.21;100.00
5053;BME280;2545;50.892;5.740;2023-02-28T06:32:27;56157.19;;;-142.21;100.00
5053;BME280;2545;50.892;5.740;2023-02-28T06:34:53;56206.22;;;-142.21;100.00
5053;BME280;2545;50.892;5.740;2023-02-28T06:37:18;56163.06;;;-142.21;100.00
5053;BME280;2545;50.892;5.740;2023-02-28T06:39:44;56170.91;;;-142.21;100.00
5053;BME280;2545;50.892;5.740;2023-02-28T06:42:09;56170.91;;;-142.21;100.00
5053;BME280;2545;50.892;5.740;2023-02-28T06:44:35;56172.88;;;-142.21;100.00
5053;BME280;2545;50.892;5.740;2023-02-28T06:47:05;56170.91;;;-142.21;100.00
5053;BME280;2545;50.892;5.740;2023-02-28T06:49:32;56196.41;;;-142.21;100.00
5053;BME280;2545;50.892;5.740;2023-02-28T06:51:57;56168.97;;;-142.21;100.00
5053;BME280;2545;50.892;5.740;2023-02-28T06:54:23;56176.78;;;-142.21;100.00
5053;BME280;2545;50.892;5.740;2023-02-28T06:56:48;56149.34;;;-142.21;100.00
5053;BME280;2545;50.892;5.740;2023-02-28T06:59:13;56174.84;;;-142.21;100.00
5053;BME280;2545;50.892;5.740;2023-02-28T07:01:39;56214.06;;;-142.21;100.00
5053;BME280;2545;50.892;5.740;2023-02-28T07:04:05;56235.63;;;-142.21;100.00
5053;BME280;2545;50.892;5.740;2023-02-28T07:06:32;56174.84;;;-142.21;100.00
5053;BME280;2545;50.892;5.740;2023-02-28T07:08:57;56192.50;;;-142.21;100.00
5053;BME280;2545;50.892;5.740;2023-02-28T07:11:26;56202.28;;;-142.21;100.00
5053;BME280;2545;50.892;5.740;2023-02-28T07:13:55;56190.53;;;-142.21;99.91
5053;BME280;2545;50.892;5.740;2023-02-28T07:16:22;56178.75;;;-142.21;98.80
5053;BME280;2545;50.892;5.740;2023-02-28T07:18:48;56200.34;;;-142.21;97.89
5053;BME280;2545;50.892;5.740;2023-02-28T07:21:14;56170.91;;;-142.21;96.91
5053;BME280;2545;50.892;5.740;2023-02-28T07:23:40;56180.72;;;-142.21;95.63
5053;BME280;2545;50.892;5.740;2023-02-28T07:26:10;56170.91;;;-142.21;94.78
5053;BME280;2545;50.892;5.740;2023-02-28T07:28:36;56180.72;;;-142.21;94.21
5053;BME280;2545;50.892;5.740;2023-02-28T07:31:05;56184.66;;;-142.21;94.10
5053;BME280;2545;50.892;5.740;2023-02-28T07:33:31;56192.50;;;-142.21;93.70
5053;BME280;2545;50.892;5.740;2023-02-28T07:36:07;56212.09;;;-142.21;93.92
5053;BME280;2545;50.892;5.740;2023-02-28T07:38:36;56212.09;;;-142.21;92.97
5053;BME280;2545;50.892;5.740;2023-02-28T07:41:03;56190.53;;;-142.21;92.61
5053;BME280;2545;50.892;5.740;2023-02-28T07:43:32;56200.34;;;-142.21;91.35
5053;BME280;2545;50.892;5.740;2023-02-28T07:46:04;56216.00;;;-142.21;91.09
5053;BME280;2545;50.892;5.740;2023-02-28T07:48:31;56190.53;;;-142.21;90.39
5053;BME280;2545;50.892;5.740;2023-02-28T07:50:57;56194.44;;;-142.21;89.30
5053;BME280;2545;50.892;5.740;2023-02-28T07:53:23;56190.53;;;-142.21;88.98
5053;BME280;2545;50.892;5.740;2023-02-28T07:55:49;56198.38;;;-142.21;88.66
5053;BME280;2545;50.892;5.740;2023-02-28T07:58:14;56196.41;;;-142.21;88.07
5053;BME280;2545;50.892;5.740;2023-02-28T08:00:40;56212.09;;;-142.21;87.38
5053;BME280;2545;50.892;5.740;2023-02-28T08:03:05;56206.22;;;-142.21;85.85
5053;BME280;2545;50.892;5.740;2023-02-28T08:05:30;56217.97;;;-142.21;84.67
5053;BME280;2545;50.892;5.740;2023-02-28T08:07:56;56186.59;;;-142.21;82.57
5053;BME280;2545;50.892;5.740;2023-02-28T08:10:21;56200.34;;;-142.21;81.53
5053;BME280;2545;50.892;5.740;2023-02-28T08:12:47;56167.00;;;-142.21;80.80
5053;BME280;2545;50.892;5.740;2023-02-28T08:15:12;56196.41;;;-142.21;80.11
5053;BME280;2545;50.892;5.740;2023-02-28T08:17:37;56194.44;;;-142.21;78.51
5053;BME280;2545;50.892;5.740;2023-02-28T08:20:03;56202.28;;;-142.21;77.44
5053;BME280;2545;50.892;5.740;2023-02-28T08:22:29;56161.13;;;-142.21;77.13
5053;BME280;2545;50.892;5.740;2023-02-28T08:24:54;56192.50;;;-142.21;76.00
5053;BME280;2545;50.892;5.740;2023-02-28T08:27:20;56192.50;;;-142.21;75.50
5053;BME280;2545;50.892;5.740;2023-02-28T08:29:45;56188.56;;;-142.21;74.75
5053;BME280;2545;50.892;5.740;2023-02-28T08:32:10;56212.09;;;-142.21;73.06
5053;BME280;2545;50.892;5.740;2023-02-28T08:34:39;56247.38;;;-142.21;72.08
5053;BME280;2545;50.892;5.740;2023-02-28T08:37:04;56219.94;;;-142.21;71.05
5053;BME280;2545;50.892;5.740;2023-02-28T08:39:29;56214.06;;;-142.21;70.76
5053;BME280;2545;50.892;5.740;2023-02-28T08:41:54;56192.50;;;-142.21;69.43
5053;BME280;2545;50.892;5.740;2023-02-28T08:44:20;56186.59;;;-142.21;67.28
5053;BME280;2545;50.892;5.740;2023-02-28T08:46:45;56208.16;;;-142.21;66.38
5053;BME280;2545;50.892;5.740;2023-02-28T08:49:10;56216.00;;;-142.21;65.19
5053;BME280;2545;50.892;5.740;2023-02-28T08:51:36;56216.00;;;-142.21;65.27
5053;BME280;2545;50.892;5.740;2023-02-28T08:54:03;56210.13;;;-142.21;63.85
5053;BME280;2545;50.892;5.740;2023-02-28T08:56:29;56176.78;;;-142.21;63.67
5053;BME280;2545;50.892;5.740;2023-02-28T08:58:56;56216.00;;;-142.21;62.71
5053;BME280;2545;50.892;5.740;2023-02-28T09:01:24;56184.66;;;-142.21;62.48
5053;BME280;2545;50.892;5.740;2023-02-28T09:03:51;56198.38;;;-142.21;62.45
5053;BME280;2545;50.892;5.740;2023-02-28T09:06:19;56170.91;;;-142.21;61.81
5053;BME280;2545;50.892;5.740;2023-02-28T09:08:45;56208.16;;;-142.21;61.02
5053;BME280;2545;50.892;5.740;2023-02-28T09:11:11;56178.75;;;-142.21;59.40
5053;BME280;2545;50.892;5.740;2023-02-28T09:13:36;56178.75;;;-142.21;57.24
5053;BME280;2545;50.892;5.740;2023-02-28T09:16:04;56217.97;;;-142.21;56.84
5053;BME280;2545;50.892;5.740;2023-02-28T09:18:30;56204.25;;;-142.21;55.22
5053;BME280;2545;50.892;5.740;2023-02-28T09:20:56;56182.69;;;-142.21;54.30
5053;BME280;2545;50.892;5.740;2023-02-28T09:23:23;56174.84;;;-142.21;53.90
5053;BME280;2545;50.892;5.740;2023-02-28T09:25:53;56174.84;;;-142.21;53.78
5053;BME280;2545;50.892;5.740;2023-02-28T09:28:20;56188.56;;;-142.21;53.07
5053;BME280;2545;50.892;5.740;2023-02-28T09:30:48;56186.59;;;-142.21;52.07
5053;BME280;2545;50.892;5.740;2023-02-28T09:33:14;56198.38;;;-142.21;51.33
5053;BME280;2545;50.892;5.740;2023-02-28T09:35:39;56186.59;;;-142.21;50.08
5053;BME280;2545;50.892;5.740;2023-02-28T09:38:05;56184.66;;;-142.21;50.14
5053;BME280;2545;50.892;5.740;2023-02-28T09:40:35;56184.66;;;-142.21;49.00
5053;BME280;2545;50.892;5.740;2023-02-28T09:43:02;56196.41;;;-142.21;48.06
5053;BME280;2545;50.892;5.740;2023-02-28T09:45:39;56184.66;;;-142.21;48.00
5053;BME280;2545;50.892;5.740;2023-02-28T09:48:20;56182.69;;;-142.21;46.03
5053;BME280;2545;50.892;5.740;2023-02-28T09:50:50;56174.84;;;-142.21;43.91
5053;BME280;2545;50.892;5.740;2023-02-28T09:53:26;56178.75;;;-142.21;42.38
5053;BME280;2545;50.892;5.740;2023-02-28T09:56:07;56180.72;;;-142.21;41.83
5053;BME280;2545;50.892;5.740;2023-02-28T09:58:41;56174.84;;;-142.21;40.33
5053;BME280;2545;50.892;5.740;2023-02-28T10:01:34;56204.25;;;-142.21;39.16
5053;BME280;2545;50.892;5.740;2023-02-28T10:04:11;56184.66;;;-142.21;37.37
5053;BME280;2545;50.892;5.740;2023-02-28T10:06:46;56206.22;;;-142.21;37.08
5053;BME280;2545;50.892;5.740;2023-02-28T10:09:20;56204.25;;;-142.21;35.65
5053;BME280;2545;50.892;5.740;2023-02-28T10:11:53;56182.69;;;-142.21;34.02
5053;BME280;2545;50.892;5.740;2023-02-28T10:14:22;56196.41;;;-142.21;34.06
5053;BME280;2545;50.892;5.740;2023-02-28T10:17:04;56155.22;;;-142.21;33.30
5053;BME280;2545;50.892;5.740;2023-02-28T10:22:15;56192.50;;;-142.21;32.45
5053;BME280;2545;50.892;5.740;2023-02-28T10:24:44;56139.53;;;-142.21;31.36
5053;BME280;2545;50.892;5.740;2023-02-28T10:27:18;56176.78;;;-142.21;30.50
5053;BME280;2545;50.892;5.740;2023-02-28T10:29:46;56178.75;;;-142.21;30.50
5053;BME280;2545;50.892;5.740;2023-02-28T10:32:22;56133.66;;;-142.21;29.95
5053;BME280;2545;50.892;5.740;2023-02-28T10:35:18;56147.38;;;-142.21;28.73
5053;BME280;2545;50.892;5.740;2023-02-28T10:37:48;56157.19;;;-142.21;29.06
5053;BME280;2545;50.892;5.740;2023-02-28T10:40:28;56125.81;;;-142.21;27.97
5053;BME280;2545;50.892;5.740;2023-02-28T10:42:59;56157.19;;;-142.21;27.74
5053;BME280;2545;50.892;5.740;2023-02-28T10:45:26;56137.59;;;-142.21;26.92
5053;BME280;2545;50.892;5.740;2023-02-28T10:47:56;56108.16;;;-142.21;26.33
5053;BME280;2545;50.892;5.740;2023-02-28T10:50:35;56147.38;;;-142.21;26.14
5053;BME280;2545;50.892;5.740;2023-02-28T10:53:39;56123.84;;;-142.21;26.95
5053;BME280;2545;50.892;5.740;2023-02-28T10:58:56;56139.53;;;-142.21;26.61
5053;BME280;2545;50.892;5.740;2023-02-28T11:03:52;56165.03;;;-142.21;26.44
5053;BME280;2545;50.892;5.740;2023-02-28T11:06:28;56165.03;;;-142.21;27.10
5053;BME280;2545;50.892;5.740;2023-02-28T11:08:58;56135.63;;;-142.21;27.02
5053;BME280;2545;50.892;5.740;2023-02-28T11:11:26;56145.44;;;-142.21;27.66
5053;BME280;2545;50.892;5.740;2023-02-28T11:13:55;56149.34;;;-142.21;28.24
5053;BME280;2545;50.892;5.740;2023-02-28T11:16:31;56153.28;;;-142.21;29.68
5053;BME280;2545;50.892;5.740;2023-02-28T11:18:58;56141.50;;;-142.21;29.85
5053;BME280;2545;50.892;5.740;2023-02-28T11:21:27;56182.69;;;-142.21;29.60
5053;BME280;2545;50.892;5.740;2023-02-28T11:24:35;56157.19;;;-142.21;30.32
5053;BME280;2545;50.892;5.740;2023-02-28T11:27:00;56159.16;;;-142.21;29.73
5053;BME280;2545;50.892;5.740;2023-02-28T11:29:30;56131.69;;;-142.21;29.25
5053;BME280;2545;50.892;5.740;2023-02-28T11:32:28;56157.19;;;-142.21;28.30
5053;BME280;2545;50.892;5.740;2023-02-28T11:37:27;56167.00;;;-142.21;27.54
5053;BME280;2545;50.892;5.740;2023-02-28T11:39:53;56125.81;;;-142.21;27.75
5053;BME280;2545;50.892;5.740;2023-02-28T11:42:38;56190.53;;;-142.21;27.89
5053;BME280;2545;50.892;5.740;2023-02-28T11:45:12;56147.38;;;-142.21;26.76
5053;BME280;2545;50.892;5.740;2023-02-28T11:48:01;56116.00;;;-142.21;26.03
5053;BME280;2545;50.892;5.740;2023-02-28T11:55:39;56155.22;;;-142.21;25.32
5053;BME280;2545;50.892;5.740;2023-02-28T12:11:51;56110.13;;;-142.21;24.96
5053;BME280;2545;50.892;5.740;2023-02-28T12:17:13;56096.41;;;-142.21;25.25
5053;BME280;2545;50.892;5.740;2023-02-28T12:28:18;56090.53;;;-142.21;24.11
5053;BME280;2545;50.892;5.740;2023-02-28T12:33:28;56068.94;;;-142.21;23.63
5053;BME280;2545;50.892;5.740;2023-02-28T12:35:59;56121.91;;;-142.21;24.20
5053;BME280;2545;50.892;5.740;2023-02-28T12:38:29;56100.31;;;-142.21;23.46
5053;BME280;2545;50.892;5.740;2023-02-28T12:41:04;56092.47;;;-142.21;23.38
5053;BME280;2545;50.892;5.740;2023-02-28T12:43:37;56117.97;;;-142.21;23.47
5053;BME280;2545;50.892;5.740;2023-02-28T12:46:32;56082.69;;;-142.21;23.22
5053;BME280;2545;50.892;5.740;2023-02-28T12:49:02;56096.41;;;-142.21;23.95
5053;BME280;2545;50.892;5.740;2023-02-28T12:51:30;56072.88;;;-142.21;23.88
5053;BME280;2545;50.892;5.740;2023-02-28T12:54:48;56090.53;;;-142.21;24.06
5053;BME280;2545;50.892;5.740;2023-02-28T12:59:52;56084.63;;;-142.21;23.78
5053;BME280;2545;50.892;5.740;2023-02-28T13:08:49;56123.84;;;-142.21;23.27
5053;BME280;2545;50.892;5.740;2023-02-28T13:14:05;56098.38;;;-142.21;23.45
5053;BME280;2545;50.892;5.740;2023-02-28T13:19:38;56049.34;;;-142.21;22.95
5053;BME280;2545;50.892;5.740;2023-02-28T13:22:05;56043.47;;;-142.21;22.92
5053;BME280;2545;50.892;5.740;2023-02-28T13:24:51;56074.84;;;-142.21;23.13
5053;BME280;2545;50.892;5.740;2023-02-28T13:27:46;56080.72;;;-142.21;23.02
5053;BME280;2545;50.892;5.740;2023-02-28T13:33:34;56082.69;;;-142.21;23.17
5053;BME280;2545;50.892;5.740;2023-02-28T13:41:46;56080.72;;;-142.21;22.56
5053;BME280;2545;50.892;5.740;2023-02-28T13:55:03;56112.09;;;-142.21;22.53
5053;BME280;2545;50.892;5.740;2023-02-28T14:00:35;56086.59;;;-142.21;23.45
5053;BME280;2545;50.892;5.740;2023-02-28T14:03:38;56057.19;;;-142.21;23.22
5053;BME280;2545;50.892;5.740;2023-02-28T14:06:27;56065.03;;;-142.21;22.63
5053;BME280;2545;50.892;5.740;2023-02-28T14:09:15;56072.88;;;-142.21;22.45
5053;BME280;2545;50.892;5.740;2023-02-28T14:11:42;56061.09;;;-142.21;22.94
5053;BME280;2545;50.892;5.740;2023-02-28T14:14:10;56110.13;;;-142.21;22.60
5053;BME280;2545;50.892;5.740;2023-02-28T14:16:55;56084.63;;;-142.21;22.75
5053;BME280;2545;50.892;5.740;2023-02-28T14:19:25;56070.91;;;-142.21;23.14
5053;BME280;2545;50.892;5.740;2023-02-28T14:30:53;56133.66;;;-142.21;24.31
5053;BME280;2545;50.892;5.740;2023-02-28T14:33:26;56100.31;;;-142.21;25.20
5053;BME280;2545;50.892;5.740;2023-02-28T14:38:24;56096.41;;;-142.21;25.83
5053;BME280;2545;50.892;5.740;2023-02-28T14:40:52;56098.38;;;-142.21;26.34
5053;BME280;2545;50.892;5.740;2023-02-28T14:43:25;56098.38;;;-142.21;26.14
5053;BME280;2545;50.892;5.740;2023-02-28T14:45:54;56104.25;;;-142.21;26.07
5053;BME280;2545;50.892;5.740;2023-02-28T14:48:21;56094.44;;;-142.21;27.10
5053;BME280;2545;50.892;5.740;2023-02-28T14:50:56;56143.47;;;-142.21;27.44
5053;BME280;2545;50.892;5.740;2023-02-28T14:53:26;56094.44;;;-142.21;27.27
5053;BME280;2545;50.892;5.740;2023-02-28T14:55:52;56084.63;;;-142.21;27.16
5053;BME280;2545;50.892;5.740;2023-02-28T14:58:38;56129.75;;;-142.21;27.40
5053;BME280;2545;50.892;5.740;2023-02-28T15:01:04;56131.69;;;-142.21;27.38
5053;BME280;2545;50.892;5.740;2023-02-28T15:03:38;56127.78;;;-142.21;27.70
5053;BME280;2545;50.892;5.740;2023-02-28T15:06:06;56088.56;;;-142.21;27.70
5053;BME280;2545;50.892;5.740;2023-02-28T15:08:32;56114.06;;;-142.21;27.19